Mountain Home A F B, Idaho
Current Conditions -  °F | °C
As of 12:58 AM on Monday 26 Jan 2015 (Local Time) from KMUO Reporting Station
Clear Clear  
Wind Chill: 24°   Ceiling: Unl
Heat Index: 32°   Visibility: 10mi
Dew Point: 29°   Wind: 9mph
Humidity: 89%   Direction: 110°ESE
Pressure: 30.41"   Gusts: NA
Location:  43.0093°N, 115.5883°W
Report Text: KMUO 260758Z AUTO 11008KT 10SM CLR 00/M01 A3041 RMK AO2 SLP318 T00011015
Loading
Personal Weather Stations






























Interactive Weather Map New forecast layout! Learn more

10-Day Weather Forecast

Advertisements
Track Severe Weather on mobile